sensor_id;sensor_type;location;lat;lon;timestamp;P1;durP1;ratioP1;P2;durP2;ratioP2
69417;SDS011;56610;48.872;2.400;2023-02-14T00:01:35;24.90;;;22.23;;
69417;SDS011;56610;48.872;2.400;2023-02-14T00:04:02;27.75;;;23.95;;
69417;SDS011;56610;48.872;2.400;2023-02-14T00:06:29;27.15;;;24.25;;
69417;SDS011;56610;48.872;2.400;2023-02-14T00:08:59;25.95;;;22.55;;
69417;SDS011;56610;48.872;2.400;2023-02-14T00:11:26;26.55;;;23.17;;
69417;SDS011;56610;48.872;2.400;2023-02-14T00:13:52;27.67;;;24.63;;
69417;SDS011;56610;48.872;2.400;2023-02-14T00:16:36;25.35;;;22.38;;
69417;SDS011;56610;48.872;2.400;2023-02-14T00:19:04;28.38;;;25.30;;
69417;SDS011;56610;48.872;2.400;2023-02-14T00:21:31;26.92;;;24.10;;
69417;SDS011;56610;48.872;2.400;2023-02-14T00:24:00;25.30;;;22.60;;
69417;SDS011;56610;48.872;2.400;2023-02-14T00:26:30;27.70;;;24.55;;
69417;SDS011;56610;48.872;2.400;2023-02-14T00:28:55;26.67;;;23.83;;
69417;SDS011;56610;48.872;2.400;2023-02-14T00:31:21;26.65;;;23.45;;
69417;SDS011;56610;48.872;2.400;2023-02-14T00:33:47;28.13;;;25.15;;
69417;SDS011;56610;48.872;2.400;2023-02-14T00:36:19;27.92;;;24.92;;
69417;SDS011;56610;48.872;2.400;2023-02-14T00:38:45;26.80;;;23.63;;
69417;SDS011;56610;48.872;2.400;2023-02-14T00:41:10;26.58;;;23.50;;
69417;SDS011;56610;48.872;2.400;2023-02-14T00:43:43;28.33;;;25.25;;
69417;SDS011;56610;48.872;2.400;2023-02-14T00:48:36;30.33;;;27.15;;
69417;SDS011;56610;48.872;2.400;2023-02-14T00:51:02;30.65;;;27.33;;
69417;SDS011;56610;48.872;2.400;2023-02-14T00:53:28;29.95;;;26.63;;
69417;SDS011;56610;48.872;2.400;2023-02-14T00:55:54;29.40;;;26.25;;
69417;SDS011;56610;48.872;2.400;2023-02-14T00:58:19;28.48;;;24.90;;
69417;SDS011;56610;48.872;2.400;2023-02-14T01:00:45;28.75;;;25.65;;
69417;SDS011;56610;48.872;2.400;2023-02-14T01:03:10;26.80;;;23.70;;
69417;SDS011;56610;48.872;2.400;2023-02-14T01:05:36;26.60;;;23.70;;
69417;SDS011;56610;48.872;2.400;2023-02-14T01:08:02;26.67;;;23.63;;
69417;SDS011;56610;48.872;2.400;2023-02-14T01:10:27;27.15;;;23.25;;
69417;SDS011;56610;48.872;2.400;2023-02-14T01:12:53;26.15;;;23.10;;
69417;SDS011;56610;48.872;2.400;2023-02-14T01:15:19;30.23;;;26.90;;
69417;SDS011;56610;48.872;2.400;2023-02-14T01:17:44;28.67;;;25.58;;
69417;SDS011;56610;48.872;2.400;2023-02-14T01:20:10;29.35;;;25.88;;
69417;SDS011;56610;48.872;2.400;2023-02-14T01:22:36;28.00;;;24.33;;
69417;SDS011;56610;48.872;2.400;2023-02-14T01:25:02;26.73;;;23.83;;
69417;SDS011;56610;48.872;2.400;2023-02-14T01:27:28;26.25;;;22.48;;
69417;SDS011;56610;48.872;2.400;2023-02-14T01:29:54;27.80;;;23.05;;
69417;SDS011;56610;48.872;2.400;2023-02-14T01:32:20;27.88;;;22.67;;
69417;SDS011;56610;48.872;2.400;2023-02-14T01:34:46;26.27;;;23.13;;
69417;SDS011;56610;48.872;2.400;2023-02-14T01:37:12;28.42;;;23.63;;
69417;SDS011;56610;48.872;2.400;2023-02-14T01:39:38;29.23;;;26.13;;
69417;SDS011;56610;48.872;2.400;2023-02-14T01:42:04;28.05;;;25.08;;
69417;SDS011;56610;48.872;2.400;2023-02-14T01:49:46;27.33;;;24.42;;
69417;SDS011;56610;48.872;2.400;2023-02-14T01:52:36;28.55;;;25.45;;
69417;SDS011;56610;48.872;2.400;2023-02-14T01:55:10;28.23;;;25.05;;
69417;SDS011;56610;48.872;2.400;2023-02-14T01:57:41;29.33;;;26.13;;
69417;SDS011;56610;48.872;2.400;2023-02-14T02:00:11;28.95;;;25.85;;
69417;SDS011;56610;48.872;2.400;2023-02-14T02:02:56;28.02;;;24.83;;
69417;SDS011;56610;48.872;2.400;2023-02-14T02:05:23;30.13;;;26.90;;
69417;SDS011;56610;48.872;2.400;2023-02-14T02:07:50;31.02;;;27.80;;
69417;SDS011;56610;48.872;2.400;2023-02-14T02:10:17;28.90;;;25.85;;
69417;SDS011;56610;48.872;2.400;2023-02-14T02:12:43;29.98;;;26.77;;
69417;SDS011;56610;48.872;2.400;2023-02-14T02:15:09;29.52;;;25.73;;
69417;SDS011;56610;48.872;2.400;2023-02-14T02:37:19;28.48;;;25.38;;
69417;SDS011;56610;48.872;2.400;2023-02-14T02:40:02;31.02;;;25.00;;
69417;SDS011;56610;48.872;2.400;2023-02-14T02:52:07;28.70;;;25.60;;
69417;SDS011;56610;48.872;2.400;2023-02-14T02:55:27;29.38;;;25.80;;
69417;SDS011;56610;48.872;2.400;2023-02-14T02:58:19;30.30;;;25.73;;
69417;SDS011;56610;48.872;2.400;2023-02-14T03:01:11;30.00;;;25.75;;
69417;SDS011;56610;48.872;2.400;2023-02-14T03:03:44;30.48;;;27.15;;
69417;SDS011;56610;48.872;2.400;2023-02-14T03:06:31;30.60;;;27.30;;
69417;SDS011;56610;48.872;2.400;2023-02-14T03:09:08;32.30;;;28.90;;
69417;SDS011;56610;48.872;2.400;2023-02-14T03:11:38;30.52;;;27.33;;
69417;SDS011;56610;48.872;2.400;2023-02-14T03:14:20;30.90;;;27.60;;
69417;SDS011;56610;48.872;2.400;2023-02-14T03:16:58;28.23;;;25.23;;
69417;SDS011;56610;48.872;2.400;2023-02-14T03:19:46;30.40;;;24.65;;
69417;SDS011;56610;48.872;2.400;2023-02-14T03:22:51;28.98;;;25.63;;
69417;SDS011;56610;48.872;2.400;2023-02-14T03:25:35;29.75;;;26.25;;
69417;SDS011;56610;48.872;2.400;2023-02-14T03:30:56;32.70;;;28.17;;
69417;SDS011;56610;48.872;2.400;2023-02-14T03:39:02;30.27;;;27.00;;
69417;SDS011;56610;48.872;2.400;2023-02-14T03:41:32;32.03;;;28.63;;
69417;SDS011;56610;48.872;2.400;2023-02-14T03:44:04;29.00;;;25.63;;
69417;SDS011;56610;48.872;2.400;2023-02-14T03:49:03;28.88;;;25.58;;
69417;SDS011;56610;48.872;2.400;2023-02-14T03:51:34;29.98;;;25.58;;
69417;SDS011;56610;48.872;2.400;2023-02-14T03:54:04;28.55;;;25.45;;
69417;SDS011;56610;48.872;2.400;2023-02-14T03:56:47;31.10;;;27.00;;
69417;SDS011;56610;48.872;2.400;2023-02-14T03:59:18;28.80;;;25.48;;
69417;SDS011;56610;48.872;2.400;2023-02-14T04:02:06;30.92;;;27.63;;
69417;SDS011;56610;48.872;2.400;2023-02-14T04:04:43;31.55;;;28.33;;
69417;SDS011;56610;48.872;2.400;2023-02-14T04:07:12;33.13;;;29.65;;
69417;SDS011;56610;48.872;2.400;2023-02-14T04:09:40;31.55;;;28.23;;
69417;SDS011;56610;48.872;2.400;2023-02-14T04:12:06;32.92;;;29.38;;
69417;SDS011;56610;48.872;2.400;2023-02-14T04:14:32;33.08;;;29.58;;
69417;SDS011;56610;48.872;2.400;2023-02-14T04:16:58;34.38;;;30.63;;
69417;SDS011;56610;48.872;2.400;2023-02-14T04:19:42;33.88;;;30.27;;
69417;SDS011;56610;48.872;2.400;2023-02-14T04:22:08;31.17;;;27.42;;
69417;SDS011;56610;48.872;2.400;2023-02-14T04:24:33;32.72;;;29.23;;
69417;SDS011;56610;48.872;2.400;2023-02-14T04:26:59;34.60;;;30.88;;
69417;SDS011;56610;48.872;2.400;2023-02-14T04:32:11;34.00;;;28.10;;
69417;SDS011;56610;48.872;2.400;2023-02-14T04:34:39;30.77;;;27.40;;
69417;SDS011;56610;48.872;2.400;2023-02-14T04:37:05;30.90;;;27.52;;
69417;SDS011;56610;48.872;2.400;2023-02-14T04:39:31;33.97;;;28.85;;
69417;SDS011;56610;48.872;2.400;2023-02-14T04:41:58;32.92;;;28.70;;
69417;SDS011;56610;48.872;2.400;2023-02-14T04:44:23;32.67;;;26.80;;
69417;SDS011;56610;48.872;2.400;2023-02-14T04:46:49;32.72;;;28.52;;
69417;SDS011;56610;48.872;2.400;2023-02-14T04:49:15;33.53;;;29.98;;
69417;SDS011;56610;48.872;2.400;2023-02-14T04:51:41;33.45;;;29.85;;
69417;SDS011;56610;48.872;2.400;2023-02-14T04:54:07;31.85;;;27.40;;
69417;SDS011;56610;48.872;2.400;2023-02-14T04:56:33;33.10;;;29.52;;
69417;SDS011;56610;48.872;2.400;2023-02-14T04:58:59;33.28;;;29.60;;
69417;SDS011;56610;48.872;2.400;2023-02-14T05:01:24;35.67;;;30.95;;
69417;SDS011;56610;48.872;2.400;2023-02-14T05:03:51;36.58;;;32.38;;
69417;SDS011;56610;48.872;2.400;2023-02-14T05:06:16;33.60;;;29.98;;
69417;SDS011;56610;48.872;2.400;2023-02-14T05:08:42;35.03;;;31.33;;
69417;SDS011;56610;48.872;2.400;2023-02-14T05:11:07;34.42;;;30.73;;
69417;SDS011;56610;48.872;2.400;2023-02-14T05:13:33;35.78;;;31.08;;
69417;SDS011;56610;48.872;2.400;2023-02-14T05:15:59;36.20;;;31.63;;
69417;SDS011;56610;48.872;2.400;2023-02-14T05:18:24;36.58;;;31.73;;
69417;SDS011;56610;48.872;2.400;2023-02-14T05:20:51;33.10;;;27.58;;
69417;SDS011;56610;48.872;2.400;2023-02-14T05:23:18;34.75;;;31.05;;
69417;SDS011;56610;48.872;2.400;2023-02-14T05:25:46;33.55;;;30.00;;
69417;SDS011;56610;48.872;2.400;2023-02-14T05:30:38;34.38;;;30.50;;
69417;SDS011;56610;48.872;2.400;2023-02-14T05:33:03;34.78;;;31.10;;
69417;SDS011;56610;48.872;2.400;2023-02-14T05:35:30;34.63;;;31.02;;
69417;SDS011;56610;48.872;2.400;2023-02-14T05:37:58;35.92;;;30.38;;
69417;SDS011;56610;48.872;2.400;2023-02-14T05:40:25;34.80;;;30.02;;
69417;SDS011;56610;48.872;2.400;2023-02-14T05:42:51;33.78;;;29.10;;
69417;SDS011;56610;48.872;2.400;2023-02-14T05:45:17;33.42;;;29.88;;
69417;SDS011;56610;48.872;2.400;2023-02-14T05:47:43;33.72;;;29.48;;
69417;SDS011;56610;48.872;2.400;2023-02-14T05:50:11;35.75;;;29.15;;
69417;SDS011;56610;48.872;2.400;2023-02-14T05:52:36;34.90;;;30.58;;
69417;SDS011;56610;48.872;2.400;2023-02-14T05:55:02;35.92;;;31.50;;
69417;SDS011;56610;48.872;2.400;2023-02-14T05:57:28;33.20;;;29.77;;
69417;SDS011;56610;48.872;2.400;2023-02-14T05:59:54;32.85;;;29.33;;
69417;SDS011;56610;48.872;2.400;2023-02-14T06:02:20;30.42;;;27.13;;
69417;SDS011;56610;48.872;2.400;2023-02-14T06:04:45;29.77;;;26.63;;
69417;SDS011;56610;48.872;2.400;2023-02-14T06:07:11;31.02;;;27.67;;
69417;SDS011;56610;48.872;2.400;2023-02-14T06:09:36;30.85;;;27.48;;
69417;SDS011;56610;48.872;2.400;2023-02-14T06:12:02;29.85;;;26.65;;
69417;SDS011;56610;48.872;2.400;2023-02-14T06:14:31;31.60;;;28.20;;
69417;SDS011;56610;48.872;2.400;2023-02-14T06:16:56;28.38;;;25.23;;
69417;SDS011;56610;48.872;2.400;2023-02-14T06:19:22;32.80;;;28.17;;
69417;SDS011;56610;48.872;2.400;2023-02-14T06:21:47;32.45;;;28.95;;
69417;SDS011;56610;48.872;2.400;2023-02-14T06:24:13;29.63;;;26.20;;
69417;SDS011;56610;48.872;2.400;2023-02-14T06:26:39;34.10;;;29.27;;
69417;SDS011;56610;48.872;2.400;2023-02-14T06:29:04;32.83;;;29.23;;
69417;SDS011;56610;48.872;2.400;2023-02-14T06:31:30;31.92;;;28.60;;
69417;SDS011;56610;48.872;2.400;2023-02-14T06:33:56;33.05;;;29.17;;
69417;SDS011;56610;48.872;2.400;2023-02-14T06:36:21;34.17;;;30.58;;
69417;SDS011;56610;48.872;2.400;2023-02-14T06:38:47;34.35;;;30.63;;
69417;SDS011;56610;48.872;2.400;2023-02-14T06:41:13;31.83;;;28.48;;
69417;SDS011;56610;48.872;2.400;2023-02-14T06:43:41;34.67;;;30.63;;
69417;SDS011;56610;48.872;2.400;2023-02-14T06:46:07;34.00;;;28.48;;
69417;SDS011;56610;48.872;2.400;2023-02-14T06:48:33;31.77;;;28.38;;
69417;SDS011;56610;48.872;2.400;2023-02-14T06:50:59;35.33;;;30.33;;
69417;SDS011;56610;48.872;2.400;2023-02-14T06:53:25;32.63;;;29.02;;
69417;SDS011;56610;48.872;2.400;2023-02-14T06:55:51;30.20;;;25.50;;
69417;SDS011;56610;48.872;2.400;2023-02-14T06:58:17;32.97;;;27.45;;
69417;SDS011;56610;48.872;2.400;2023-02-14T07:00:42;30.63;;;27.05;;
69417;SDS011;56610;48.872;2.400;2023-02-14T07:03:08;30.65;;;27.27;;
69417;SDS011;56610;48.872;2.400;2023-02-14T07:05:34;30.38;;;27.02;;
69417;SDS011;56610;48.872;2.400;2023-02-14T07:07:59;28.98;;;25.73;;
69417;SDS011;56610;48.872;2.400;2023-02-14T07:10:25;30.48;;;27.17;;
69417;SDS011;56610;48.872;2.400;2023-02-14T07:12:51;29.60;;;26.40;;
69417;SDS011;56610;48.872;2.400;2023-02-14T07:15:16;28.30;;;24.88;;
69417;SDS011;56610;48.872;2.400;2023-02-14T07:17:42;31.90;;;26.75;;
69417;SDS011;56610;48.872;2.400;2023-02-14T07:20:08;34.40;;;29.63;;
69417;SDS011;56610;48.872;2.400;2023-02-14T07:22:35;32.40;;;27.63;;
69417;SDS011;56610;48.872;2.400;2023-02-14T07:25:02;32.35;;;28.27;;
69417;SDS011;56610;48.872;2.400;2023-02-14T07:27:28;32.67;;;28.38;;
69417;SDS011;56610;48.872;2.400;2023-02-14T07:29:54;30.15;;;26.65;;
69417;SDS011;56610;48.872;2.400;2023-02-14T07:32:20;30.08;;;25.65;;
69417;SDS011;56610;48.872;2.400;2023-02-14T07:34:47;30.58;;;25.95;;
69417;SDS011;56610;48.872;2.400;2023-02-14T07:37:13;29.83;;;25.50;;
69417;SDS011;56610;48.872;2.400;2023-02-14T07:39:40;29.93;;;25.63;;
69417;SDS011;56610;48.872;2.400;2023-02-14T07:42:06;34.47;;;29.67;;
69417;SDS011;56610;48.872;2.400;2023-02-14T07:44:32;35.80;;;27.27;;
69417;SDS011;56610;48.872;2.400;2023-02-14T07:46:58;34.63;;;27.33;;
69417;SDS011;56610;48.872;2.400;2023-02-14T07:49:23;34.63;;;27.02;;
69417;SDS011;56610;48.872;2.400;2023-02-14T07:51:49;36.38;;;27.83;;
69417;SDS011;56610;48.872;2.400;2023-02-14T07:54:15;36.10;;;27.90;;
69417;SDS011;56610;48.872;2.400;2023-02-14T07:56:40;33.15;;;26.73;;
69417;SDS011;56610;48.872;2.400;2023-02-14T07:59:06;35.15;;;27.27;;
69417;SDS011;56610;48.872;2.400;2023-02-14T08:01:31;33.13;;;26.75;;
69417;SDS011;56610;48.872;2.400;2023-02-14T08:03:57;35.70;;;29.52;;
69417;SDS011;56610;48.872;2.400;2023-02-14T08:06:23;30.42;;;26.10;;
69417;SDS011;56610;48.872;2.400;2023-02-14T08:08:50;32.13;;;26.23;;
69417;SDS011;56610;48.872;2.400;2023-02-14T08:11:16;29.40;;;24.60;;
69417;SDS011;56610;48.872;2.400;2023-02-14T08:14:02;33.13;;;26.60;;
69417;SDS011;56610;48.872;2.400;2023-02-14T08:16:28;34.70;;;29.55;;
69417;SDS011;56610;48.872;2.400;2023-02-14T08:18:56;32.95;;;28.05;;
69417;SDS011;56610;48.872;2.400;2023-02-14T08:21:21;31.30;;;27.92;;
69417;SDS011;56610;48.872;2.400;2023-02-14T08:23:47;37.55;;;29.90;;
69417;SDS011;56610;48.872;2.400;2023-02-14T08:26:13;31.50;;;26.50;;
69417;SDS011;56610;48.872;2.400;2023-02-14T08:28:39;34.20;;;28.55;;
69417;SDS011;56610;48.872;2.400;2023-02-14T08:31:05;33.20;;;27.50;;
69417;SDS011;56610;48.872;2.400;2023-02-14T08:33:31;33.47;;;28.40;;
69417;SDS011;56610;48.872;2.400;2023-02-14T08:35:59;34.38;;;28.88;;
69417;SDS011;56610;48.872;2.400;2023-02-14T08:38:26;32.45;;;27.73;;
69417;SDS011;56610;48.872;2.400;2023-02-14T08:40:52;32.95;;;27.13;;
69417;SDS011;56610;48.872;2.400;2023-02-14T08:43:18;34.38;;;28.33;;
69417;SDS011;56610;48.872;2.400;2023-02-14T08:45:43;33.70;;;27.33;;
69417;SDS011;56610;48.872;2.400;2023-02-14T08:48:10;33.78;;;28.90;;
69417;SDS011;56610;48.872;2.400;2023-02-14T08:50:37;36.95;;;30.67;;
69417;SDS011;56610;48.872;2.400;2023-02-14T08:53:07;34.22;;;29.02;;
69417;SDS011;56610;48.872;2.400;2023-02-14T08:55:34;38.60;;;28.77;;
69417;SDS011;56610;48.872;2.400;2023-02-14T08:58:00;33.03;;;28.23;;
69417;SDS011;56610;48.872;2.400;2023-02-14T09:00:26;32.13;;;26.88;;
69417;SDS011;56610;48.872;2.400;2023-02-14T09:02:52;33.42;;;27.45;;
69417;SDS011;56610;48.872;2.400;2023-02-14T09:05:18;32.47;;;26.65;;
69417;SDS011;56610;48.872;2.400;2023-02-14T09:07:47;36.97;;;28.70;;
69417;SDS011;56610;48.872;2.400;2023-02-14T09:10:13;34.42;;;28.23;;
69417;SDS011;56610;48.872;2.400;2023-02-14T09:12:39;31.42;;;26.63;;
69417;SDS011;56610;48.872;2.400;2023-02-14T09:15:05;31.45;;;24.63;;
69417;SDS011;56610;48.872;2.400;2023-02-14T09:17:33;33.35;;;26.65;;
69417;SDS011;56610;48.872;2.400;2023-02-14T09:19:59;30.50;;;25.00;;
69417;SDS011;56610;48.872;2.400;2023-02-14T09:22:24;27.27;;;23.23;;
69417;SDS011;56610;48.872;2.400;2023-02-14T09:24:50;31.00;;;27.65;;
69417;SDS011;56610;48.872;2.400;2023-02-14T09:27:16;29.48;;;25.35;;
69417;SDS011;56610;48.872;2.400;2023-02-14T09:29:41;30.73;;;25.83;;
69417;SDS011;56610;48.872;2.400;2023-02-14T09:32:07;31.70;;;27.08;;
69417;SDS011;56610;48.872;2.400;2023-02-14T09:34:33;34.45;;;28.55;;
69417;SDS011;56610;48.872;2.400;2023-02-14T09:36:59;34.55;;;27.73;;
69417;SDS011;56610;48.872;2.400;2023-02-14T09:39:24;32.17;;;26.88;;
69417;SDS011;56610;48.872;2.400;2023-02-14T09:42:01;30.52;;;24.83;;
69417;SDS011;56610;48.872;2.400;2023-02-14T09:44:46;28.83;;;25.25;;
69417;SDS011;56610;48.872;2.400;2023-02-14T09:47:34;28.45;;;24.70;;
69417;SDS011;56610;48.872;2.400;2023-02-14T09:50:02;30.88;;;24.88;;
69417;SDS011;56610;48.872;2.400;2023-02-14T09:52:30;29.92;;;25.48;;
69417;SDS011;56610;48.872;2.400;2023-02-14T09:54:57;31.52;;;25.83;;
69417;SDS011;56610;48.872;2.400;2023-02-14T09:57:34;29.98;;;26.33;;
69417;SDS011;56610;48.872;2.400;2023-02-14T10:02:55;28.08;;;25.02;;
69417;SDS011;56610;48.872;2.400;2023-02-14T10:10:43;34.40;;;28.42;;
69417;SDS011;56610;48.872;2.400;2023-02-14T10:13:21;29.83;;;25.10;;
69417;SDS011;56610;48.872;2.400;2023-02-14T10:16:00;30.17;;;26.50;;
69417;SDS011;56610;48.872;2.400;2023-02-14T10:18:51;30.92;;;27.35;;
69417;SDS011;56610;48.872;2.400;2023-02-14T10:21:32;32.35;;;25.65;;
69417;SDS011;56610;48.872;2.400;2023-02-14T10:24:15;29.73;;;25.95;;
69417;SDS011;56610;48.872;2.400;2023-02-14T10:26:45;32.35;;;28.95;;
69417;SDS011;56610;48.872;2.400;2023-02-14T10:29:13;29.85;;;26.65;;
69417;SDS011;56610;48.872;2.400;2023-02-14T10:31:49;33.22;;;26.92;;
69417;SDS011;56610;48.872;2.400;2023-02-14T10:39:45;28.80;;;25.40;;
69417;SDS011;56610;48.872;2.400;2023-02-14T10:47:45;31.45;;;26.17;;
69417;SDS011;56610;48.872;2.400;2023-02-14T10:50:32;34.33;;;28.95;;
69417;SDS011;56610;48.872;2.400;2023-02-14T10:56:25;29.67;;;26.33;;
69417;SDS011;56610;48.872;2.400;2023-02-14T10:58:58;31.92;;;27.98;;
69417;SDS011;56610;48.872;2.400;2023-02-14T11:01:32;31.17;;;25.42;;
69417;SDS011;56610;48.872;2.400;2023-02-14T11:03:59;33.42;;;26.25;;
69417;SDS011;56610;48.872;2.400;2023-02-14T11:06:32;31.88;;;28.27;;
69417;SDS011;56610;48.872;2.400;2023-02-14T11:08:58;32.42;;;27.65;;
69417;SDS011;56610;48.872;2.400;2023-02-14T11:14:19;36.80;;;30.73;;
69417;SDS011;56610;48.872;2.400;2023-02-14T11:16:45;34.63;;;29.23;;
69417;SDS011;56610;48.872;2.400;2023-02-14T11:19:22;33.35;;;28.08;;
69417;SDS011;56610;48.872;2.400;2023-02-14T11:21:49;34.03;;;29.65;;
69417;SDS011;56610;48.872;2.400;2023-02-14T11:27:22;34.63;;;30.48;;
69417;SDS011;56610;48.872;2.400;2023-02-14T11:29:47;34.63;;;30.42;;
69417;SDS011;56610;48.872;2.400;2023-02-14T11:32:20;33.15;;;29.55;;
69417;SDS011;56610;48.872;2.400;2023-02-14T11:37:58;35.60;;;31.00;;
69417;SDS011;56610;48.872;2.400;2023-02-14T11:40:33;36.63;;;32.65;;
69417;SDS011;56610;48.872;2.400;2023-02-14T11:43:16;32.45;;;27.88;;
69417;SDS011;56610;48.872;2.400;2023-02-14T11:45:45;35.30;;;29.02;;
69417;SDS011;56610;48.872;2.400;2023-02-14T11:48:20;35.00;;;31.08;;
69417;SDS011;56610;48.872;2.400;2023-02-14T11:51:01;35.38;;;31.58;;
69417;SDS011;56610;48.872;2.400;2023-02-14T11:53:50;34.65;;;29.65;;
69417;SDS011;56610;48.872;2.400;2023-02-14T11:56:19;35.38;;;31.58;;
69417;SDS011;56610;48.872;2.400;2023-02-14T11:58:57;34.17;;;30.20;;
69417;SDS011;56610;48.872;2.400;2023-02-14T12:01:29;37.72;;;33.63;;
69417;SDS011;56610;48.872;2.400;2023-02-14T12:04:21;34.38;;;30.67;;
69417;SDS011;56610;48.872;2.400;2023-02-14T12:06:49;33.03;;;29.35;;
69417;SDS011;56610;48.872;2.400;2023-02-14T12:11:59;32.58;;;29.17;;
69417;SDS011;56610;48.872;2.400;2023-02-14T12:14:30;35.63;;;31.88;;
69417;SDS011;56610;48.872;2.400;2023-02-14T12:19:44;32.42;;;27.65;;
69417;SDS011;56610;48.872;2.400;2023-02-14T12:22:20;34.08;;;29.85;;
69417;SDS011;56610;48.872;2.400;2023-02-14T12:24:53;31.45;;;28.05;;
69417;SDS011;56610;48.872;2.400;2023-02-14T12:27:39;36.20;;;32.30;;
69417;SDS011;56610;48.872;2.400;2023-02-14T12:30:26;35.15;;;31.23;;
69417;SDS011;56610;48.872;2.400;2023-02-14T12:32:55;35.08;;;31.27;;
69417;SDS011;56610;48.872;2.400;2023-02-14T12:43:54;31.42;;;28.02;;
69417;SDS011;56610;48.872;2.400;2023-02-14T12:57:51;28.27;;;24.40;;
69417;SDS011;56610;48.872;2.400;2023-02-14T13:06:16;30.20;;;26.98;;
69417;SDS011;56610;48.872;2.400;2023-02-14T13:20:05;27.45;;;23.70;;
69417;SDS011;56610;48.872;2.400;2023-02-14T13:22:56;24.50;;;21.77;;
69417;SDS011;56610;48.872;2.400;2023-02-14T13:25:28;27.52;;;21.63;;
69417;SDS011;56610;48.872;2.400;2023-02-14T13:28:05;28.05;;;25.15;;
69417;SDS011;56610;48.872;2.400;2023-02-14T13:30:35;26.77;;;23.77;;
69417;SDS011;56610;48.872;2.400;2023-02-14T13:33:13;26.15;;;23.38;;
69417;SDS011;56610;48.872;2.400;2023-02-14T13:35:56;23.85;;;20.45;;
69417;SDS011;56610;48.872;2.400;2023-02-14T13:38:24;24.30;;;21.55;;
69417;SDS011;56610;48.872;2.400;2023-02-14T13:40:51;23.75;;;21.30;;
69417;SDS011;56610;48.872;2.400;2023-02-14T13:46:04;24.60;;;20.90;;
69417;SDS011;56610;48.872;2.400;2023-02-14T13:48:29;23.63;;;21.13;;
69417;SDS011;56610;48.872;2.400;2023-02-14T13:50:59;25.27;;;21.15;;
69417;SDS011;56610;48.872;2.400;2023-02-14T13:58:56;23.10;;;20.63;;
69417;SDS011;56610;48.872;2.400;2023-02-14T14:17:35;22.95;;;19.05;;
69417;SDS011;56610;48.872;2.400;2023-02-14T14:22:46;22.95;;;20.65;;
69417;SDS011;56610;48.872;2.400;2023-02-14T14:25:30;21.48;;;19.38;;
69417;SDS011;56610;48.872;2.400;2023-02-14T14:27:59;21.42;;;18.58;;
69417;SDS011;56610;48.872;2.400;2023-02-14T14:30:26;21.77;;;19.58;;
69417;SDS011;56610;48.872;2.400;2023-02-14T14:35:50;21.92;;;19.40;;
69417;SDS011;56610;48.872;2.400;2023-02-14T14:38:17;21.15;;;17.60;;
69417;SDS011;56610;48.872;2.400;2023-02-14T14:40:44;22.40;;;19.70;;
69417;SDS011;56610;48.872;2.400;2023-02-14T14:43:31;22.35;;;20.05;;
69417;SDS011;56610;48.872;2.400;2023-02-14T14:45:59;23.63;;;21.10;;
69417;SDS011;56610;48.872;2.400;2023-02-14T14:48:31;24.35;;;19.63;;
69417;SDS011;56610;48.872;2.400;2023-02-14T14:51:24;21.13;;;19.02;;
69417;SDS011;56610;48.872;2.400;2023-02-14T14:53:56;22.02;;;19.77;;
69417;SDS011;56610;48.872;2.400;2023-02-14T14:56:43;24.33;;;21.70;;
69417;SDS011;56610;48.872;2.400;2023-02-14T14:59:25;23.98;;;21.20;;
69417;SDS011;56610;48.872;2.400;2023-02-14T15:01:54;22.95;;;20.48;;
69417;SDS011;56610;48.872;2.400;2023-02-14T15:04:24;23.30;;;20.80;;
69417;SDS011;56610;48.872;2.400;2023-02-14T15:06:53;21.58;;;19.48;;
69417;SDS011;56610;48.872;2.400;2023-02-14T15:11:48;23.98;;;21.38;;
69417;SDS011;56610;48.872;2.400;2023-02-14T15:14:34;23.63;;;21.17;;
69417;SDS011;56610;48.872;2.400;2023-02-14T15:17:03;24.45;;;21.90;;
69417;SDS011;56610;48.872;2.400;2023-02-14T15:19:32;24.88;;;21.20;;
69417;SDS011;56610;48.872;2.400;2023-02-14T15:22:13;25.75;;;21.98;;
69417;SDS011;56610;48.872;2.400;2023-02-14T15:24:46;23.38;;;20.98;;
69417;SDS011;56610;48.872;2.400;2023-02-14T15:27:16;23.48;;;20.85;;
69417;SDS011;56610;48.872;2.400;2023-02-14T15:29:58;26.13;;;22.33;;
69417;SDS011;56610;48.872;2.400;2023-02-14T15:32:26;25.00;;;22.23;;
69417;SDS011;56610;48.872;2.400;2023-02-14T15:34:59;27.75;;;21.73;;
69417;SDS011;56610;48.872;2.400;2023-02-14T15:37:27;25.35;;;21.23;;
69417;SDS011;56610;48.872;2.400;2023-02-14T15:39:54;29.02;;;22.73;;
69417;SDS011;56610;48.872;2.400;2023-02-14T15:42:22;25.33;;;20.73;;
69417;SDS011;56610;48.872;2.400;2023-02-14T15:45:19;24.15;;;21.50;;
69417;SDS011;56610;48.872;2.400;2023-02-14T15:47:50;26.30;;;21.42;;
69417;SDS011;56610;48.872;2.400;2023-02-14T15:50:18;24.77;;;20.10;;
69417;SDS011;56610;48.872;2.400;2023-02-14T15:53:00;24.92;;;20.55;;
69417;SDS011;56610;48.872;2.400;2023-02-14T15:55:32;27.65;;;21.00;;
69417;SDS011;56610;48.872;2.400;2023-02-14T15:58:13;25.50;;;20.08;;
69417;SDS011;56610;48.872;2.400;2023-02-14T16:00:47;25.90;;;20.88;;
69417;SDS011;56610;48.872;2.400;2023-02-14T16:03:24;23.30;;;19.15;;
69417;SDS011;56610;48.872;2.400;2023-02-14T16:05:52;25.50;;;21.08;;
69417;SDS011;56610;48.872;2.400;2023-02-14T16:13:34;24.75;;;19.45;;
69417;SDS011;56610;48.872;2.400;2023-02-14T16:16:03;26.92;;;19.08;;
69417;SDS011;56610;48.872;2.400;2023-02-14T16:21:11;26.45;;;18.90;;
69417;SDS011;56610;48.872;2.400;2023-02-14T16:23:39;22.52;;;17.48;;
69417;SDS011;56610;48.872;2.400;2023-02-14T16:26:05;23.65;;;18.42;;
69417;SDS011;56610;48.872;2.400;2023-02-14T16:28:32;26.15;;;19.33;;
69417;SDS011;56610;48.872;2.400;2023-02-14T16:30:59;24.45;;;17.85;;
69417;SDS011;56610;48.872;2.400;2023-02-14T16:35:54;23.83;;;18.08;;
69417;SDS011;56610;48.872;2.400;2023-02-14T16:38:34;24.38;;;18.58;;
69417;SDS011;56610;48.872;2.400;2023-02-14T16:41:05;27.80;;;19.10;;
69417;SDS011;56610;48.872;2.400;2023-02-14T16:43:36;25.60;;;18.80;;
69417;SDS011;56610;48.872;2.400;2023-02-14T16:46:02;26.80;;;19.27;;
69417;SDS011;56610;48.872;2.400;2023-02-14T16:48:28;27.10;;;18.08;;
69417;SDS011;56610;48.872;2.400;2023-02-14T16:50:54;27.63;;;18.23;;
69417;SDS011;56610;48.872;2.400;2023-02-14T16:53:25;25.92;;;16.70;;
69417;SDS011;56610;48.872;2.400;2023-02-14T16:55:52;25.98;;;17.85;;
69417;SDS011;56610;48.872;2.400;2023-02-14T16:58:20;27.05;;;18.23;;
69417;SDS011;56610;48.872;2.400;2023-02-14T17:00:51;21.42;;;15.45;;
69417;SDS011;56610;48.872;2.400;2023-02-14T17:03:17;24.67;;;18.15;;
69417;SDS011;56610;48.872;2.400;2023-02-14T17:05:43;27.25;;;18.00;;
69417;SDS011;56610;48.872;2.400;2023-02-14T17:08:09;23.90;;;17.02;;
69417;SDS011;56610;48.872;2.400;2023-02-14T17:13:04;29.20;;;20.23;;
69417;SDS011;56610;48.872;2.400;2023-02-14T17:15:31;23.77;;;18.93;;
69417;SDS011;56610;48.872;2.400;2023-02-14T17:17:59;27.48;;;20.13;;
69417;SDS011;56610;48.872;2.400;2023-02-14T17:20:30;28.48;;;20.58;;
69417;SDS011;56610;48.872;2.400;2023-02-14T17:22:56;26.70;;;19.73;;
69417;SDS011;56610;48.872;2.400;2023-02-14T17:25:22;24.85;;;19.98;;
69417;SDS011;56610;48.872;2.400;2023-02-14T17:27:48;26.98;;;20.35;;
69417;SDS011;56610;48.872;2.400;2023-02-14T17:30:13;28.35;;;19.50;;